sensor_id;sensor_type;location;lat;lon;timestamp;P1;durP1;ratioP1;P2;durP2;ratioP2
37903;SDS011;23738;50.422;18.758;2023-02-01T00:01:23;7.20;;;4.50;;
37903;SDS011;23738;50.422;18.758;2023-02-01T00:03:50;8.20;;;5.30;;
37903;SDS011;23738;50.422;18.758;2023-02-01T00:06:18;11.60;;;5.10;;
37903;SDS011;23738;50.422;18.758;2023-02-01T00:08:45;9.80;;;4.70;;
37903;SDS011;23738;50.422;18.758;2023-02-01T00:11:12;10.00;;;6.00;;
37903;SDS011;23738;50.422;18.758;2023-02-01T00:13:40;7.30;;;4.20;;
37903;SDS011;23738;50.422;18.758;2023-02-01T00:16:08;6.80;;;4.30;;
37903;SDS011;23738;50.422;18.758;2023-02-01T00:18:38;8.00;;;5.10;;
37903;SDS011;23738;50.422;18.758;2023-02-01T00:21:06;5.90;;;3.80;;
37903;SDS011;23738;50.422;18.758;2023-02-01T00:23:33;6.50;;;4.40;;
37903;SDS011;23738;50.422;18.758;2023-02-01T00:26:01;7.50;;;4.70;;
37903;SDS011;23738;50.422;18.758;2023-02-01T00:28:30;5.00;;;3.30;;
37903;SDS011;23738;50.422;18.758;2023-02-01T00:30:59;5.20;;;2.50;;
37903;SDS011;23738;50.422;18.758;2023-02-01T00:33:28;5.60;;;2.10;;
37903;SDS011;23738;50.422;18.758;2023-02-01T00:35:57;6.10;;;1.70;;
37903;SDS011;23738;50.422;18.758;2023-02-01T00:38:25;2.80;;;2.00;;
37903;SDS011;23738;50.422;18.758;2023-02-01T00:40:52;2.80;;;1.60;;
37903;SDS011;23738;50.422;18.758;2023-02-01T00:43:19;2.00;;;0.80;;
37903;SDS011;23738;50.422;18.758;2023-02-01T00:45:47;1.30;;;0.70;;
37903;SDS011;23738;50.422;18.758;2023-02-01T00:48:14;2.70;;;1.00;;
37903;SDS011;23738;50.422;18.758;2023-02-01T00:50:41;1.50;;;0.90;;
37903;SDS011;23738;50.422;18.758;2023-02-01T00:53:09;1.30;;;0.90;;
37903;SDS011;23738;50.422;18.758;2023-02-01T00:55:36;1.40;;;0.60;;
37903;SDS011;23738;50.422;18.758;2023-02-01T00:58:04;3.00;;;0.80;;
37903;SDS011;23738;50.422;18.758;2023-02-01T01:00:32;2.20;;;0.90;;
37903;SDS011;23738;50.422;18.758;2023-02-01T01:02:59;1.30;;;0.50;;
37903;SDS011;23738;50.422;18.758;2023-02-01T01:05:26;1.50;;;0.50;;
37903;SDS011;23738;50.422;18.758;2023-02-01T01:07:53;2.80;;;0.50;;
37903;SDS011;23738;50.422;18.758;2023-02-01T01:10:21;2.10;;;0.50;;
37903;SDS011;23738;50.422;18.758;2023-02-01T01:12:48;1.40;;;0.30;;
37903;SDS011;23738;50.422;18.758;2023-02-01T01:15:16;3.10;;;0.50;;
37903;SDS011;23738;50.422;18.758;2023-02-01T01:17:43;3.00;;;0.50;;
37903;SDS011;23738;50.422;18.758;2023-02-01T01:20:12;1.30;;;0.30;;
37903;SDS011;23738;50.422;18.758;2023-02-01T01:22:39;3.70;;;0.50;;
37903;SDS011;23738;50.422;18.758;2023-02-01T01:25:07;3.30;;;0.70;;
37903;SDS011;23738;50.422;18.758;2023-02-01T01:27:34;3.60;;;0.70;;
37903;SDS011;23738;50.422;18.758;2023-02-01T01:30:02;3.20;;;0.70;;
37903;SDS011;23738;50.422;18.758;2023-02-01T01:32:30;4.10;;;0.60;;
37903;SDS011;23738;50.422;18.758;2023-02-01T01:34:57;4.00;;;0.70;;
37903;SDS011;23738;50.422;18.758;2023-02-01T01:37:24;2.10;;;0.90;;
37903;SDS011;23738;50.422;18.758;2023-02-01T01:39:51;4.00;;;0.90;;
37903;SDS011;23738;50.422;18.758;2023-02-01T01:42:20;2.00;;;0.70;;
37903;SDS011;23738;50.422;18.758;2023-02-01T01:44:56;3.40;;;1.50;;
37903;SDS011;23738;50.422;18.758;2023-02-01T01:47:25;1.80;;;0.50;;
37903;SDS011;23738;50.422;18.758;2023-02-01T01:49:57;3.40;;;0.60;;
37903;SDS011;23738;50.422;18.758;2023-02-01T01:52:24;4.60;;;0.90;;
37903;SDS011;23738;50.422;18.758;2023-02-01T01:54:51;2.40;;;0.60;;
37903;SDS011;23738;50.422;18.758;2023-02-01T01:57:22;3.80;;;0.70;;
37903;SDS011;23738;50.422;18.758;2023-02-01T01:59:54;6.00;;;0.80;;
37903;SDS011;23738;50.422;18.758;2023-02-01T02:02:25;2.20;;;0.60;;
37903;SDS011;23738;50.422;18.758;2023-02-01T02:04:53;3.30;;;0.80;;
37903;SDS011;23738;50.422;18.758;2023-02-01T02:07:21;3.50;;;0.70;;
37903;SDS011;23738;50.422;18.758;2023-02-01T02:09:52;2.80;;;0.90;;
37903;SDS011;23738;50.422;18.758;2023-02-01T02:12:19;2.70;;;0.90;;
37903;SDS011;23738;50.422;18.758;2023-02-01T02:14:47;4.20;;;1.00;;
37903;SDS011;23738;50.422;18.758;2023-02-01T02:17:18;2.00;;;0.50;;
37903;SDS011;23738;50.422;18.758;2023-02-01T02:32:18;1.60;;;0.40;;
37903;SDS011;23738;50.422;18.758;2023-02-01T02:34:57;3.30;;;0.60;;
37903;SDS011;23738;50.422;18.758;2023-02-01T02:37:33;1.10;;;0.30;;
37903;SDS011;23738;50.422;18.758;2023-02-01T02:40:06;1.50;;;0.50;;
37903;SDS011;23738;50.422;18.758;2023-02-01T02:45:29;2.60;;;0.60;;
37903;SDS011;23738;50.422;18.758;2023-02-01T02:48:24;4.20;;;0.40;;
37903;SDS011;23738;50.422;18.758;2023-02-01T02:50:56;1.80;;;0.40;;
37903;SDS011;23738;50.422;18.758;2023-02-01T02:53:48;4.20;;;0.60;;
37903;SDS011;23738;50.422;18.758;2023-02-01T02:56:47;4.60;;;0.70;;
37903;SDS011;23738;50.422;18.758;2023-02-01T02:59:35;2.90;;;0.70;;
37903;SDS011;23738;50.422;18.758;2023-02-01T03:02:24;2.40;;;1.00;;
37903;SDS011;23738;50.422;18.758;2023-02-01T03:05:12;3.50;;;1.60;;
37903;SDS011;23738;50.422;18.758;2023-02-01T03:07:51;3.00;;;1.40;;
37903;SDS011;23738;50.422;18.758;2023-02-01T03:10:24;5.90;;;1.80;;
37903;SDS011;23738;50.422;18.758;2023-02-01T03:13:00;5.30;;;2.30;;
37903;SDS011;23738;50.422;18.758;2023-02-01T03:15:33;2.70;;;1.00;;
37903;SDS011;23738;50.422;18.758;2023-02-01T03:18:05;2.50;;;0.90;;
37903;SDS011;23738;50.422;18.758;2023-02-01T03:20:38;4.00;;;1.10;;
37903;SDS011;23738;50.422;18.758;2023-02-01T03:23:09;1.30;;;0.70;;
37903;SDS011;23738;50.422;18.758;2023-02-01T03:25:39;2.50;;;1.10;;
37903;SDS011;23738;50.422;18.758;2023-02-01T03:28:08;2.00;;;0.60;;
37903;SDS011;23738;50.422;18.758;2023-02-01T03:30:38;9.60;;;1.10;;
37903;SDS011;23738;50.422;18.758;2023-02-01T03:33:09;3.80;;;1.20;;
37903;SDS011;23738;50.422;18.758;2023-02-01T03:35:48;3.30;;;0.70;;
37903;SDS011;23738;50.422;18.758;2023-02-01T03:38:21;1.90;;;0.60;;
37903;SDS011;23738;50.422;18.758;2023-02-01T03:40:52;3.20;;;0.60;;
37903;SDS011;23738;50.422;18.758;2023-02-01T03:43:25;4.10;;;1.20;;
37903;SDS011;23738;50.422;18.758;2023-02-01T03:45:57;1.10;;;0.40;;
37903;SDS011;23738;50.422;18.758;2023-02-01T03:48:27;1.50;;;0.50;;
37903;SDS011;23738;50.422;18.758;2023-02-01T03:50:56;2.30;;;0.40;;
37903;SDS011;23738;50.422;18.758;2023-02-01T03:53:27;1.30;;;0.60;;
37903;SDS011;23738;50.422;18.758;2023-02-01T03:55:55;1.70;;;0.70;;
37903;SDS011;23738;50.422;18.758;2023-02-01T03:58:23;2.30;;;0.90;;
37903;SDS011;23738;50.422;18.758;2023-02-01T04:00:51;2.10;;;1.00;;
37903;SDS011;23738;50.422;18.758;2023-02-01T04:03:20;2.90;;;1.10;;
37903;SDS011;23738;50.422;18.758;2023-02-01T04:05:47;4.00;;;2.00;;
37903;SDS011;23738;50.422;18.758;2023-02-01T04:08:15;4.40;;;2.60;;
37903;SDS011;23738;50.422;18.758;2023-02-01T04:10:43;2.50;;;1.40;;
37903;SDS011;23738;50.422;18.758;2023-02-01T04:13:10;3.00;;;1.40;;
37903;SDS011;23738;50.422;18.758;2023-02-01T04:15:38;2.50;;;1.10;;
37903;SDS011;23738;50.422;18.758;2023-02-01T04:18:05;2.50;;;0.80;;
37903;SDS011;23738;50.422;18.758;2023-02-01T04:20:33;4.00;;;1.20;;
37903;SDS011;23738;50.422;18.758;2023-02-01T04:23:00;3.00;;;1.20;;
37903;SDS011;23738;50.422;18.758;2023-02-01T04:25:28;5.10;;;1.80;;
37903;SDS011;23738;50.422;18.758;2023-02-01T04:27:55;5.00;;;1.90;;
37903;SDS011;23738;50.422;18.758;2023-02-01T04:30:22;5.10;;;2.00;;
37903;SDS011;23738;50.422;18.758;2023-02-01T04:32:49;5.20;;;2.40;;
37903;SDS011;23738;50.422;18.758;2023-02-01T04:35:17;4.70;;;2.10;;
37903;SDS011;23738;50.422;18.758;2023-02-01T04:37:44;3.00;;;1.60;;
37903;SDS011;23738;50.422;18.758;2023-02-01T04:40:12;4.10;;;1.50;;
37903;SDS011;23738;50.422;18.758;2023-02-01T04:42:39;4.10;;;1.80;;
37903;SDS011;23738;50.422;18.758;2023-02-01T04:45:08;5.20;;;2.10;;
37903;SDS011;23738;50.422;18.758;2023-02-01T04:47:36;3.80;;;2.40;;
37903;SDS011;23738;50.422;18.758;2023-02-01T04:50:04;7.30;;;2.40;;
37903;SDS011;23738;50.422;18.758;2023-02-01T04:52:35;7.20;;;2.40;;
37903;SDS011;23738;50.422;18.758;2023-02-01T04:55:04;8.50;;;2.60;;
37903;SDS011;23738;50.422;18.758;2023-02-01T04:57:32;4.80;;;2.20;;
37903;SDS011;23738;50.422;18.758;2023-02-01T04:59:59;6.90;;;2.30;;
37903;SDS011;23738;50.422;18.758;2023-02-01T05:02:27;7.40;;;2.40;;
37903;SDS011;23738;50.422;18.758;2023-02-01T05:04:54;9.40;;;2.90;;
37903;SDS011;23738;50.422;18.758;2023-02-01T05:07:21;6.60;;;3.00;;
37903;SDS011;23738;50.422;18.758;2023-02-01T05:09:48;6.30;;;3.00;;
37903;SDS011;23738;50.422;18.758;2023-02-01T05:12:16;6.50;;;2.90;;
37903;SDS011;23738;50.422;18.758;2023-02-01T05:15:01;7.10;;;3.40;;
37903;SDS011;23738;50.422;18.758;2023-02-01T05:17:29;8.10;;;3.10;;
37903;SDS011;23738;50.422;18.758;2023-02-01T05:19:56;7.70;;;3.40;;
37903;SDS011;23738;50.422;18.758;2023-02-01T05:22:23;7.80;;;3.60;;
37903;SDS011;23738;50.422;18.758;2023-02-01T05:24:50;10.80;;;3.10;;
37903;SDS011;23738;50.422;18.758;2023-02-01T05:27:18;12.60;;;4.50;;
37903;SDS011;23738;50.422;18.758;2023-02-01T05:29:45;9.20;;;3.50;;
37903;SDS011;23738;50.422;18.758;2023-02-01T05:32:12;7.50;;;3.60;;
37903;SDS011;23738;50.422;18.758;2023-02-01T05:34:39;9.80;;;4.50;;
37903;SDS011;23738;50.422;18.758;2023-02-01T05:37:06;11.20;;;3.70;;
37903;SDS011;23738;50.422;18.758;2023-02-01T05:39:34;8.10;;;3.30;;
37903;SDS011;23738;50.422;18.758;2023-02-01T05:42:01;7.90;;;3.50;;
37903;SDS011;23738;50.422;18.758;2023-02-01T05:44:29;5.30;;;2.30;;
37903;SDS011;23738;50.422;18.758;2023-02-01T05:46:56;6.10;;;2.60;;
37903;SDS011;23738;50.422;18.758;2023-02-01T05:49:23;9.20;;;2.50;;
37903;SDS011;23738;50.422;18.758;2023-02-01T05:51:51;10.20;;;2.70;;
37903;SDS011;23738;50.422;18.758;2023-02-01T05:54:18;8.50;;;2.30;;
37903;SDS011;23738;50.422;18.758;2023-02-01T05:56:45;7.90;;;2.60;;
37903;SDS011;23738;50.422;18.758;2023-02-01T05:59:12;8.00;;;2.80;;
37903;SDS011;23738;50.422;18.758;2023-02-01T06:01:40;7.70;;;2.40;;
37903;SDS011;23738;50.422;18.758;2023-02-01T06:04:07;13.20;;;3.70;;
37903;SDS011;23738;50.422;18.758;2023-02-01T06:06:34;6.50;;;2.70;;
37903;SDS011;23738;50.422;18.758;2023-02-01T06:09:02;12.90;;;2.80;;
37903;SDS011;23738;50.422;18.758;2023-02-01T06:11:30;7.20;;;3.30;;
37903;SDS011;23738;50.422;18.758;2023-02-01T06:13:58;7.00;;;2.70;;
37903;SDS011;23738;50.422;18.758;2023-02-01T06:16:25;6.90;;;2.50;;
37903;SDS011;23738;50.422;18.758;2023-02-01T06:18:53;9.10;;;2.20;;
37903;SDS011;23738;50.422;18.758;2023-02-01T06:21:20;10.00;;;2.50;;
37903;SDS011;23738;50.422;18.758;2023-02-01T06:23:49;6.40;;;2.20;;
37903;SDS011;23738;50.422;18.758;2023-02-01T06:26:17;8.80;;;2.10;;
37903;SDS011;23738;50.422;18.758;2023-02-01T06:28:44;5.00;;;1.90;;
37903;SDS011;23738;50.422;18.758;2023-02-01T06:31:12;9.60;;;2.60;;
37903;SDS011;23738;50.422;18.758;2023-02-01T06:33:39;6.90;;;2.30;;
37903;SDS011;23738;50.422;18.758;2023-02-01T06:36:07;10.10;;;3.10;;
37903;SDS011;23738;50.422;18.758;2023-02-01T06:38:37;9.70;;;4.20;;
37903;SDS011;23738;50.422;18.758;2023-02-01T06:41:08;13.20;;;4.20;;
37903;SDS011;23738;50.422;18.758;2023-02-01T06:43:36;12.30;;;4.10;;
37903;SDS011;23738;50.422;18.758;2023-02-01T06:46:04;9.80;;;4.20;;
37903;SDS011;23738;50.422;18.758;2023-02-01T06:48:33;11.50;;;4.90;;
37903;SDS011;23738;50.422;18.758;2023-02-01T06:51:00;14.60;;;4.00;;
37903;SDS011;23738;50.422;18.758;2023-02-01T06:53:28;19.60;;;5.60;;
37903;SDS011;23738;50.422;18.758;2023-02-01T06:55:56;13.60;;;5.10;;
37903;SDS011;23738;50.422;18.758;2023-02-01T06:58:27;12.10;;;4.40;;
37903;SDS011;23738;50.422;18.758;2023-02-01T07:00:55;15.70;;;5.00;;
37903;SDS011;23738;50.422;18.758;2023-02-01T07:03:23;14.30;;;5.20;;
37903;SDS011;23738;50.422;18.758;2023-02-01T07:05:56;15.70;;;6.30;;
37903;SDS011;23738;50.422;18.758;2023-02-01T07:08:24;14.70;;;5.90;;
37903;SDS011;23738;50.422;18.758;2023-02-01T07:10:52;14.90;;;4.60;;
37903;SDS011;23738;50.422;18.758;2023-02-01T07:13:19;20.80;;;7.50;;
37903;SDS011;23738;50.422;18.758;2023-02-01T07:15:47;18.20;;;6.30;;
37903;SDS011;23738;50.422;18.758;2023-02-01T07:18:14;12.80;;;6.40;;
37903;SDS011;23738;50.422;18.758;2023-02-01T07:20:41;19.30;;;6.40;;
37903;SDS011;23738;50.422;18.758;2023-02-01T07:23:09;11.80;;;4.90;;
37903;SDS011;23738;50.422;18.758;2023-02-01T07:25:36;7.30;;;3.70;;
37903;SDS011;23738;50.422;18.758;2023-02-01T07:28:03;14.30;;;4.10;;
37903;SDS011;23738;50.422;18.758;2023-02-01T07:30:30;7.00;;;2.90;;
37903;SDS011;23738;50.422;18.758;2023-02-01T07:32:58;13.40;;;4.10;;
37903;SDS011;23738;50.422;18.758;2023-02-01T07:35:27;11.00;;;5.80;;
37903;SDS011;23738;50.422;18.758;2023-02-01T07:37:54;16.40;;;7.50;;
37903;SDS011;23738;50.422;18.758;2023-02-01T07:40:24;14.50;;;6.50;;
37903;SDS011;23738;50.422;18.758;2023-02-01T07:42:54;12.90;;;5.30;;
37903;SDS011;23738;50.422;18.758;2023-02-01T07:45:21;10.40;;;5.20;;
37903;SDS011;23738;50.422;18.758;2023-02-01T07:47:50;12.80;;;5.10;;
37903;SDS011;23738;50.422;18.758;2023-02-01T07:50:18;18.60;;;7.50;;
37903;SDS011;23738;50.422;18.758;2023-02-01T07:52:46;12.60;;;6.60;;
37903;SDS011;23738;50.422;18.758;2023-02-01T07:55:13;23.80;;;8.70;;
37903;SDS011;23738;50.422;18.758;2023-02-01T07:57:41;21.10;;;8.50;;
37903;SDS011;23738;50.422;18.758;2023-02-01T08:00:10;22.50;;;7.50;;
37903;SDS011;23738;50.422;18.758;2023-02-01T08:02:58;12.70;;;6.60;;
37903;SDS011;23738;50.422;18.758;2023-02-01T08:05:25;20.40;;;7.80;;
37903;SDS011;23738;50.422;18.758;2023-02-01T08:07:53;19.70;;;8.40;;
37903;SDS011;23738;50.422;18.758;2023-02-01T08:10:20;27.90;;;9.30;;
37903;SDS011;23738;50.422;18.758;2023-02-01T08:12:47;26.00;;;9.10;;
37903;SDS011;23738;50.422;18.758;2023-02-01T08:15:17;18.80;;;7.50;;
37903;SDS011;23738;50.422;18.758;2023-02-01T08:17:48;20.00;;;7.80;;
37903;SDS011;23738;50.422;18.758;2023-02-01T08:20:17;19.60;;;8.70;;
37903;SDS011;23738;50.422;18.758;2023-02-01T08:22:45;15.50;;;7.10;;
37903;SDS011;23738;50.422;18.758;2023-02-01T08:25:12;20.30;;;7.70;;
37903;SDS011;23738;50.422;18.758;2023-02-01T08:27:39;19.20;;;8.00;;
37903;SDS011;23738;50.422;18.758;2023-02-01T08:30:08;18.10;;;7.00;;
37903;SDS011;23738;50.422;18.758;2023-02-01T08:32:36;12.90;;;6.50;;
37903;SDS011;23738;50.422;18.758;2023-02-01T08:35:04;14.10;;;7.00;;
37903;SDS011;23738;50.422;18.758;2023-02-01T08:37:32;16.00;;;6.00;;
37903;SDS011;23738;50.422;18.758;2023-02-01T08:39:59;22.00;;;6.70;;
37903;SDS011;23738;50.422;18.758;2023-02-01T08:42:27;17.90;;;7.10;;
37903;SDS011;23738;50.422;18.758;2023-02-01T08:45:12;12.70;;;5.80;;
37903;SDS011;23738;50.422;18.758;2023-02-01T08:47:39;13.70;;;6.40;;
37903;SDS011;23738;50.422;18.758;2023-02-01T08:50:08;12.80;;;6.20;;
37903;SDS011;23738;50.422;18.758;2023-02-01T08:52:36;14.20;;;6.10;;
37903;SDS011;23738;50.422;18.758;2023-02-01T08:55:05;24.30;;;8.20;;
37903;SDS011;23738;50.422;18.758;2023-02-01T08:57:34;20.50;;;8.40;;
37903;SDS011;23738;50.422;18.758;2023-02-01T09:00:02;12.00;;;9.00;;
37903;SDS011;23738;50.422;18.758;2023-02-01T09:02:31;27.80;;;11.20;;
37903;SDS011;23738;50.422;18.758;2023-02-01T09:04:59;20.40;;;9.70;;
37903;SDS011;23738;50.422;18.758;2023-02-01T09:07:26;22.20;;;9.10;;
37903;SDS011;23738;50.422;18.758;2023-02-01T09:09:53;16.60;;;9.00;;
37903;SDS011;23738;50.422;18.758;2023-02-01T09:12:22;24.50;;;9.50;;
37903;SDS011;23738;50.422;18.758;2023-02-01T09:14:49;25.30;;;12.10;;
37903;SDS011;23738;50.422;18.758;2023-02-01T09:17:16;21.10;;;10.40;;
37903;SDS011;23738;50.422;18.758;2023-02-01T09:19:44;23.70;;;9.90;;
37903;SDS011;23738;50.422;18.758;2023-02-01T09:22:11;19.60;;;7.30;;
37903;SDS011;23738;50.422;18.758;2023-02-01T09:24:38;15.00;;;6.30;;
37903;SDS011;23738;50.422;18.758;2023-02-01T09:27:05;11.50;;;6.00;;
37903;SDS011;23738;50.422;18.758;2023-02-01T09:29:33;15.10;;;8.30;;
37903;SDS011;23738;50.422;18.758;2023-02-01T09:32:00;19.90;;;10.80;;
37903;SDS011;23738;50.422;18.758;2023-02-01T09:34:27;14.80;;;9.10;;
37903;SDS011;23738;50.422;18.758;2023-02-01T09:36:55;16.60;;;8.80;;
37903;SDS011;23738;50.422;18.758;2023-02-01T09:39:23;18.20;;;7.70;;
37903;SDS011;23738;50.422;18.758;2023-02-01T09:41:54;17.30;;;6.80;;
37903;SDS011;23738;50.422;18.758;2023-02-01T09:44:30;17.90;;;8.30;;
37903;SDS011;23738;50.422;18.758;2023-02-01T09:47:12;18.30;;;8.40;;
37903;SDS011;23738;50.422;18.758;2023-02-01T09:49:45;10.60;;;6.60;;
37903;SDS011;23738;50.422;18.758;2023-02-01T09:52:20;10.40;;;6.60;;
37903;SDS011;23738;50.422;18.758;2023-02-01T09:54:55;15.10;;;7.30;;
37903;SDS011;23738;50.422;18.758;2023-02-01T09:57:28;11.30;;;5.70;;
37903;SDS011;23738;50.422;18.758;2023-02-01T10:00:15;14.20;;;6.40;;
37903;SDS011;23738;50.422;18.758;2023-02-01T10:05:15;15.90;;;8.00;;
37903;SDS011;23738;50.422;18.758;2023-02-01T10:07:51;18.30;;;7.90;;
37903;SDS011;23738;50.422;18.758;2023-02-01T10:10:30;11.90;;;5.70;;
37903;SDS011;23738;50.422;18.758;2023-02-01T10:13:09;8.90;;;3.50;;
37903;SDS011;23738;50.422;18.758;2023-02-01T10:16:01;6.40;;;3.00;;
37903;SDS011;23738;50.422;18.758;2023-02-01T10:18:42;11.30;;;3.80;;
37903;SDS011;23738;50.422;18.758;2023-02-01T10:21:30;7.50;;;3.20;;
37903;SDS011;23738;50.422;18.758;2023-02-01T10:24:14;8.20;;;3.50;;
37903;SDS011;23738;50.422;18.758;2023-02-01T10:26:51;7.50;;;2.90;;
37903;SDS011;23738;50.422;18.758;2023-02-01T10:29:26;7.30;;;3.20;;
37903;SDS011;23738;50.422;18.758;2023-02-01T10:32:00;8.10;;;3.00;;
37903;SDS011;23738;50.422;18.758;2023-02-01T10:34:30;8.30;;;3.10;;
37903;SDS011;23738;50.422;18.758;2023-02-01T10:37:01;7.40;;;3.20;;
37903;SDS011;23738;50.422;18.758;2023-02-01T10:39:45;5.30;;;3.20;;
37903;SDS011;23738;50.422;18.758;2023-02-01T10:42:13;8.20;;;3.90;;
37903;SDS011;23738;50.422;18.758;2023-02-01T10:44:42;7.30;;;3.50;;
37903;SDS011;23738;50.422;18.758;2023-02-01T10:47:13;13.30;;;4.80;;
37903;SDS011;23738;50.422;18.758;2023-02-01T10:49:43;11.60;;;4.60;;
37903;SDS011;23738;50.422;18.758;2023-02-01T10:52:19;8.50;;;3.60;;
37903;SDS011;23738;50.422;18.758;2023-02-01T10:57:21;9.90;;;3.30;;
37903;SDS011;23738;50.422;18.758;2023-02-01T10:59:51;6.50;;;3.00;;
37903;SDS011;23738;50.422;18.758;2023-02-01T11:02:20;10.70;;;3.10;;
37903;SDS011;23738;50.422;18.758;2023-02-01T11:04:58;8.90;;;3.10;;
37903;SDS011;23738;50.422;18.758;2023-02-01T11:07:28;6.40;;;2.70;;
37903;SDS011;23738;50.422;18.758;2023-02-01T11:09:56;5.50;;;2.20;;
37903;SDS011;23738;50.422;18.758;2023-02-01T11:12:26;5.10;;;2.70;;
37903;SDS011;23738;50.422;18.758;2023-02-01T11:15:00;5.40;;;2.60;;
37903;SDS011;23738;50.422;18.758;2023-02-01T11:17:40;8.90;;;3.30;;
37903;SDS011;23738;50.422;18.758;2023-02-01T11:20:12;6.00;;;2.50;;
37903;SDS011;23738;50.422;18.758;2023-02-01T11:22:45;7.80;;;2.40;;
37903;SDS011;23738;50.422;18.758;2023-02-01T11:25:14;4.80;;;2.30;;
37903;SDS011;23738;50.422;18.758;2023-02-01T11:27:43;8.80;;;2.20;;
37903;SDS011;23738;50.422;18.758;2023-02-01T11:30:15;6.70;;;2.90;;
37903;SDS011;23738;50.422;18.758;2023-02-01T11:32:45;6.60;;;3.40;;
37903;SDS011;23738;50.422;18.758;2023-02-01T11:35:15;7.20;;;2.50;;
37903;SDS011;23738;50.422;18.758;2023-02-01T11:37:48;7.20;;;3.10;;
37903;SDS011;23738;50.422;18.758;2023-02-01T11:40:25;5.10;;;2.40;;
37903;SDS011;23738;50.422;18.758;2023-02-01T11:42:55;8.00;;;2.40;;
37903;SDS011;23738;50.422;18.758;2023-02-01T11:45:28;6.50;;;2.00;;
37903;SDS011;23738;50.422;18.758;2023-02-01T11:47:56;6.90;;;2.00;;
37903;SDS011;23738;50.422;18.758;2023-02-01T11:50:27;4.60;;;2.20;;
37903;SDS011;23738;50.422;18.758;2023-02-01T11:53:05;5.40;;;1.70;;
37903;SDS011;23738;50.422;18.758;2023-02-01T11:55:47;5.30;;;2.00;;
37903;SDS011;23738;50.422;18.758;2023-02-01T11:58:41;3.70;;;1.60;;
37903;SDS011;23738;50.422;18.758;2023-02-01T12:01:29;6.90;;;1.90;;
37903;SDS011;23738;50.422;18.758;2023-02-01T12:04:12;4.90;;;2.20;;
37903;SDS011;23738;50.422;18.758;2023-02-01T12:07:00;4.40;;;1.90;;
37903;SDS011;23738;50.422;18.758;2023-02-01T12:09:43;4.00;;;1.70;;
37903;SDS011;23738;50.422;18.758;2023-02-01T12:12:29;4.50;;;2.30;;
37903;SDS011;23738;50.422;18.758;2023-02-01T12:18:04;6.20;;;2.60;;
37903;SDS011;23738;50.422;18.758;2023-02-01T12:20:58;5.40;;;3.20;;
37903;SDS011;23738;50.422;18.758;2023-02-01T12:29:23;6.30;;;3.70;;
37903;SDS011;23738;50.422;18.758;2023-02-01T12:32:16;6.00;;;3.20;;
37903;SDS011;23738;50.422;18.758;2023-02-01T12:35:04;4.60;;;2.20;;
37903;SDS011;23738;50.422;18.758;2023-02-01T12:37:53;7.80;;;3.70;;
37903;SDS011;23738;50.422;18.758;2023-02-01T12:40:33;7.80;;;4.50;;
37903;SDS011;23738;50.422;18.758;2023-02-01T12:43:10;9.90;;;4.30;;
37903;SDS011;23738;50.422;18.758;2023-02-01T12:45:47;10.50;;;4.00;;
37903;SDS011;23738;50.422;18.758;2023-02-01T12:48:27;5.40;;;3.70;;
37903;SDS011;23738;50.422;18.758;2023-02-01T12:50:59;6.80;;;3.20;;
37903;SDS011;23738;50.422;18.758;2023-02-01T12:53:32;4.10;;;3.20;;
37903;SDS011;23738;50.422;18.758;2023-02-01T12:56:10;5.90;;;3.50;;
37903;SDS011;23738;50.422;18.758;2023-02-01T12:58:41;7.10;;;3.80;;
37903;SDS011;23738;50.422;18.758;2023-02-01T13:01:13;4.70;;;2.60;;
37903;SDS011;23738;50.422;18.758;2023-02-01T13:03:50;6.60;;;2.80;;
37903;SDS011;23738;50.422;18.758;2023-02-01T13:06:23;9.70;;;3.70;;
37903;SDS011;23738;50.422;18.758;2023-02-01T13:08:56;6.20;;;2.80;;
37903;SDS011;23738;50.422;18.758;2023-02-01T13:11:34;4.10;;;1.90;;
37903;SDS011;23738;50.422;18.758;2023-02-01T13:14:05;5.40;;;1.80;;
37903;SDS011;23738;50.422;18.758;2023-02-01T13:16:43;5.70;;;2.20;;
37903;SDS011;23738;50.422;18.758;2023-02-01T13:19:16;5.40;;;2.80;;
37903;SDS011;23738;50.422;18.758;2023-02-01T13:21:48;4.70;;;2.10;;
37903;SDS011;23738;50.422;18.758;2023-02-01T13:24:26;4.20;;;2.20;;
37903;SDS011;23738;50.422;18.758;2023-02-01T13:26:59;4.20;;;1.90;;
37903;SDS011;23738;50.422;18.758;2023-02-01T13:29:27;2.80;;;1.60;;
37903;SDS011;23738;50.422;18.758;2023-02-01T13:35:19;3.80;;;2.20;;
37903;SDS011;23738;50.422;18.758;2023-02-01T13:38:03;11.00;;;4.10;;
37903;SDS011;23738;50.422;18.758;2023-02-01T13:40:41;6.00;;;3.50;;
37903;SDS011;23738;50.422;18.758;2023-02-01T13:43:16;7.70;;;3.50;;
37903;SDS011;23738;50.422;18.758;2023-02-01T13:45:49;5.10;;;2.90;;
37903;SDS011;23738;50.422;18.758;2023-02-01T13:48:19;6.00;;;4.50;;
37903;SDS011;23738;50.422;18.758;2023-02-01T13:50:51;7.00;;;5.20;;
37903;SDS011;23738;50.422;18.758;2023-02-01T13:53:23;6.70;;;4.70;;
37903;SDS011;23738;50.422;18.758;2023-02-01T13:56:00;5.00;;;3.20;;
37903;SDS011;23738;50.422;18.758;2023-02-01T13:58:33;6.00;;;3.50;;
37903;SDS011;23738;50.422;18.758;2023-02-01T14:04:45;4.40;;;3.50;;
37903;SDS011;23738;50.422;18.758;2023-02-01T14:07:22;7.50;;;5.10;;
37903;SDS011;23738;50.422;18.758;2023-02-01T14:09:49;8.30;;;6.10;;
37903;SDS011;23738;50.422;18.758;2023-02-01T14:15:22;34.80;;;17.50;;
37903;SDS011;23738;50.422;18.758;2023-02-01T14:17:52;77.30;;;32.20;;
37903;SDS011;23738;50.422;18.758;2023-02-01T14:23:28;105.20;;;48.30;;
37903;SDS011;23738;50.422;18.758;2023-02-01T14:26:02;144.80;;;70.20;;
37903;SDS011;23738;50.422;18.758;2023-02-01T14:28:34;46.10;;;26.40;;
37903;SDS011;23738;50.422;18.758;2023-02-01T14:31:14;16.50;;;11.90;;
37903;SDS011;23738;50.422;18.758;2023-02-01T14:33:50;126.50;;;57.50;;
37903;SDS011;23738;50.422;18.758;2023-02-01T14:36:24;24.80;;;14.60;;
37903;SDS011;23738;50.422;18.758;2023-02-01T14:38:52;28.00;;;16.80;;
37903;SDS011;23738;50.422;18.758;2023-02-01T14:41:32;22.00;;;14.00;;
37903;SDS011;23738;50.422;18.758;2023-02-01T14:44:14;16.10;;;11.60;;
37903;SDS011;23738;50.422;18.758;2023-02-01T14:49:52;24.10;;;13.20;;
37903;SDS011;23738;50.422;18.758;2023-02-01T14:52:23;21.30;;;10.80;;
37903;SDS011;23738;50.422;18.758;2023-02-01T14:55:01;29.10;;;13.20;;
37903;SDS011;23738;50.422;18.758;2023-02-01T14:57:33;17.00;;;10.30;;
37903;SDS011;23738;50.422;18.758;2023-02-01T15:00:14;19.60;;;10.90;;
37903;SDS011;23738;50.422;18.758;2023-02-01T15:02:46;25.00;;;13.70;;
37903;SDS011;23738;50.422;18.758;2023-02-01T15:05:26;29.30;;;15.00;;
37903;SDS011;23738;50.422;18.758;2023-02-01T15:07:57;22.50;;;12.70;;
37903;SDS011;23738;50.422;18.758;2023-02-01T15:10:30;8.90;;;5.70;;
37903;SDS011;23738;50.422;18.758;2023-02-01T15:12:59;20.10;;;11.40;;
37903;SDS011;23738;50.422;18.758;2023-02-01T15:15:27;18.80;;;10.10;;
37903;SDS011;23738;50.422;18.758;2023-02-01T15:17:58;12.40;;;8.50;;
37903;SDS011;23738;50.422;18.758;2023-02-01T15:20:26;14.40;;;8.20;;
37903;SDS011;23738;50.422;18.758;2023-02-01T15:22:56;5.80;;;3.90;;
37903;SDS011;23738;50.422;18.758;2023-02-01T15:25:25;6.20;;;4.20;;
37903;SDS011;23738;50.422;18.758;2023-02-01T15:27:54;10.90;;;7.40;;
37903;SDS011;23738;50.422;18.758;2023-02-01T15:30:23;9.40;;;5.70;;
37903;SDS011;23738;50.422;18.758;2023-02-01T15:32:52;10.10;;;6.80;;
37903;SDS011;23738;50.422;18.758;2023-02-01T15:35:40;6.30;;;4.70;;
37903;SDS011;23738;50.422;18.758;2023-02-01T15:41:12;9.30;;;3.90;;